createdAt,value
2022-07-27T00:02:48.431Z,14.53
2022-07-27T00:06:54.807Z,9.27
2022-07-27T00:10:59.283Z,9.20
2022-07-27T00:15:02.591Z,8.93
2022-07-27T00:19:09.174Z,9.93
2022-07-27T00:23:20.370Z,9.40
2022-07-27T00:27:23.682Z,11.40
2022-07-27T00:31:27.055Z,8.80
2022-07-27T00:35:31.920Z,9.60
2022-07-27T00:39:35.234Z,12.43
2022-07-27T00:43:54.246Z,8.63
2022-07-27T00:47:57.587Z,9.83
2022-07-27T00:52:02.325Z,9.13
2022-07-27T00:56:06.190Z,9.30
2022-07-27T01:00:11.043Z,9.20
2022-07-27T01:04:14.401Z,8.43
2022-07-27T01:08:19.184Z,10.17
2022-07-27T01:12:32.556Z,10.27
2022-07-27T01:16:36.065Z,12.03
2022-07-27T01:20:40.806Z,10.17
2022-07-27T01:24:45.543Z,10.00
2022-07-27T01:28:49.322Z,8.80
2022-07-27T01:32:52.755Z,9.70
2022-07-27T01:36:56.372Z,8.60
2022-07-27T01:41:01.084Z,9.23
2022-07-27T01:45:04.952Z,9.23
2022-07-27T01:49:08.896Z,9.53
2022-07-27T01:53:12.588Z,10.20
2022-07-27T01:57:17.229Z,8.73
2022-07-27T02:01:20.537Z,9.17
2022-07-27T02:05:24.148Z,9.50
2022-07-27T02:09:27.507Z,9.03
2022-07-27T02:13:32.273Z,9.13
2022-07-27T02:17:36.334Z,8.80
2022-07-27T02:21:39.613Z,6.93
2022-07-27T02:25:42.902Z,8.47
2022-07-27T02:29:47.552Z,7.60
2022-07-27T02:33:50.883Z,7.57
2022-07-27T02:37:54.191Z,7.50
2022-07-27T02:41:57.617Z,7.80
2022-07-27T02:46:02.291Z,7.90
2022-07-27T02:50:06.991Z,10.37
2022-07-27T02:54:10.538Z,8.93
2022-07-27T02:58:13.895Z,7.30
2022-07-27T03:02:18.615Z,7.43
2022-07-27T03:06:21.931Z,7.60
2022-07-27T03:10:25.219Z,7.93
2022-07-27T03:14:28.575Z,8.10
2022-07-27T03:18:33.399Z,8.03
2022-07-27T03:22:36.742Z,8.13
2022-07-27T03:26:40.153Z,7.60
2022-07-27T03:30:44.054Z,7.20
2022-07-27T03:34:48.920Z,7.80
2022-07-27T03:38:52.604Z,8.40
2022-07-27T03:42:56.093Z,6.97
2022-07-27T03:46:59.388Z,8.30
2022-07-27T03:51:04.183Z,6.60
2022-07-27T03:55:08.690Z,8.60
2022-07-27T03:59:12.313Z,7.77
2022-07-27T04:03:16.116Z,7.57
2022-07-27T04:07:21.098Z,7.60
2022-07-27T04:11:24.396Z,8.23
2022-07-27T04:15:32.362Z,8.00
2022-07-27T04:19:35.615Z,8.20
2022-07-27T04:23:40.327Z,7.20
2022-07-27T04:27:43.665Z,7.37
2022-07-27T04:31:46.960Z,9.53
2022-07-27T04:35:50.256Z,8.03
2022-07-27T04:39:58.091Z,7.40
2022-07-27T04:44:01.589Z,8.80
2022-07-27T04:48:07.635Z,6.93
2022-07-27T04:52:10.990Z,7.07
2022-07-27T04:56:15.979Z,7.10
2022-07-27T05:00:22.044Z,8.00
2022-07-27T05:04:25.741Z,8.13
2022-07-27T05:08:30.628Z,7.80
2022-07-27T05:12:35.434Z,7.27
2022-07-27T05:16:42.295Z,8.00
2022-07-27T05:20:45.749Z,7.37
2022-07-27T05:24:49.190Z,7.23
2022-07-27T05:28:53.877Z,6.90
2022-07-27T05:32:57.163Z,7.70
2022-07-27T05:37:00.733Z,6.83
2022-07-27T05:41:04.020Z,7.67
2022-07-27T05:45:10.312Z,6.07
2022-07-27T05:49:13.918Z,7.33
2022-07-27T05:53:17.715Z,6.10
2022-07-27T05:57:21.096Z,5.70
2022-07-27T06:01:25.919Z,5.17
2022-07-27T06:05:30.159Z,5.50
2022-07-27T06:09:33.480Z,5.30
2022-07-27T06:13:37.290Z,3.77
2022-07-27T06:17:49.247Z,4.63
2022-07-27T06:21:53.967Z,7.60
2022-07-27T06:25:58.027Z,4.77
2022-07-27T06:30:01.329Z,4.57
2022-07-27T06:34:06.818Z,4.10
2022-07-27T06:38:15.262Z,3.37
2022-07-27T06:42:18.537Z,5.73
2022-07-27T06:46:22.062Z,4.67
2022-07-27T06:50:27.071Z,4.33
2022-07-27T06:54:33.009Z,4.57
2022-07-27T06:58:37.760Z,4.77
2022-07-27T07:02:52.455Z,4.17
2022-07-27T07:07:05.238Z,5.20
2022-07-27T07:11:14.122Z,4.10
2022-07-27T07:15:18.281Z,4.27
2022-07-27T07:19:21.772Z,5.90
2022-07-27T07:23:26.637Z,4.37
2022-07-27T07:27:30.192Z,4.30
2022-07-27T07:31:33.833Z,4.80
2022-07-27T07:35:37.193Z,4.70
2022-07-27T07:40:18.804Z,4.63
2022-07-27T07:44:26.392Z,5.27
2022-07-27T07:48:34.811Z,4.70
2022-07-27T07:52:38.386Z,5.00
2022-07-27T07:56:43.115Z,4.60
2022-07-27T08:00:46.715Z,4.77
2022-07-27T08:04:50.129Z,4.63
2022-07-27T08:08:53.567Z,5.13
2022-07-27T08:12:59.121Z,4.07
2022-07-27T08:17:02.717Z,4.10
2022-07-27T08:21:06.103Z,5.47
2022-07-27T08:25:10.346Z,6.53
2022-07-27T08:29:16.365Z,6.13
2022-07-27T08:33:20.434Z,4.57
2022-07-27T08:37:23.761Z,6.43
2022-07-27T08:41:28.535Z,5.43
2022-07-27T08:45:33.728Z,4.40
2022-07-27T08:49:43.671Z,4.60
2022-07-27T08:53:53.187Z,4.57
2022-07-27T08:58:02.740Z,5.00
2022-07-27T09:02:12.160Z,4.70
2022-07-27T09:06:35.648Z,4.27
2022-07-27T09:10:39.780Z,5.03
2022-07-27T09:14:43.450Z,4.60
2022-07-27T09:18:49.177Z,4.87
2022-07-27T09:22:53.695Z,4.80
2022-07-27T09:27:04.302Z,4.70
2022-07-27T09:31:08.904Z,5.60
2022-07-27T09:35:22.131Z,4.80
2022-07-27T09:39:27.122Z,4.70
2022-07-27T09:44:20.199Z,4.27
2022-07-27T09:47:54.338Z,4.47
2022-07-27T09:52:01.302Z,5.23
2022-07-27T09:56:07.768Z,4.90
2022-07-27T10:00:13.905Z,4.70
2022-07-27T10:04:18.483Z,4.97
2022-07-27T10:08:23.803Z,4.43
2022-07-27T10:12:30.058Z,3.73
2022-07-27T10:16:35.673Z,4.43
2022-07-27T10:20:47.697Z,6.80
2022-07-27T10:25:00.681Z,5.40
2022-07-27T10:29:06.388Z,4.40
2022-07-27T10:33:17.420Z,4.60
2022-07-27T10:37:27.054Z,4.67
2022-07-27T10:41:34.233Z,4.33
2022-07-27T10:45:50.286Z,5.10
2022-07-27T10:50:29.950Z,8.43
2022-07-27T10:54:38.646Z,5.20
2022-07-27T10:58:52.759Z,3.83
2022-07-27T11:02:58.205Z,4.67
2022-07-27T11:11:28.104Z,5.10
2022-07-27T11:15:33.715Z,5.30
2022-07-27T11:19:37.557Z,5.60
2022-07-27T11:23:51.237Z,5.87
2022-07-27T11:27:55.597Z,4.93
2022-07-27T11:32:01.991Z,4.83
2022-07-27T11:36:08.075Z,4.53
2022-07-27T11:40:42.274Z,4.90
2022-07-27T11:44:39.993Z,5.20
2022-07-27T11:49:07.278Z,5.33
2022-07-27T11:53:11.799Z,6.83
2022-07-27T11:57:18.823Z,5.60
2022-07-27T12:01:28.971Z,4.77
2022-07-27T12:05:33.892Z,4.60
2022-07-27T12:09:39.715Z,7.70
2022-07-27T12:13:43.175Z,5.60
2022-07-27T12:17:47.450Z,5.13
2022-07-27T12:21:57.573Z,5.40
2022-07-27T12:26:19.075Z,4.97
2022-07-27T12:30:31.579Z,4.83
2022-07-27T12:34:37.221Z,4.20
2022-07-27T12:38:50.703Z,4.97
2022-07-27T12:43:00.694Z,5.43
2022-07-27T12:47:22.762Z,5.33
2022-07-27T12:51:30.548Z,5.70
2022-07-27T12:55:36.022Z,4.67
2022-07-27T12:59:39.763Z,4.93
2022-07-27T13:03:43.339Z,5.30
2022-07-27T13:07:47.881Z,5.10
2022-07-27T13:11:58.312Z,13.20
2022-07-27T13:16:03.638Z,4.90
2022-07-27T13:20:09.958Z,5.23
2022-07-27T13:24:13.296Z,5.67
2022-07-27T13:28:18.025Z,9.47
2022-07-27T13:32:24.570Z,5.10
2022-07-27T13:36:28.836Z,4.60
2022-07-27T13:40:32.209Z,6.03
2022-07-27T13:45:02.249Z,5.00
2022-07-27T13:49:00.634Z,4.97
2022-07-27T13:53:03.999Z,5.57
2022-07-27T13:57:07.290Z,5.00
2022-07-27T14:01:12.596Z,4.53
2022-07-27T14:05:20.143Z,6.43
2022-07-27T14:09:43.810Z,5.20
2022-07-27T14:13:47.246Z,5.30
2022-07-27T14:17:51.933Z,4.97
2022-07-27T14:21:55.292Z,5.10
2022-07-27T14:26:00.055Z,5.03
2022-07-27T14:30:03.425Z,5.07
2022-07-27T14:34:08.105Z,4.60
2022-07-27T14:38:11.738Z,5.50
2022-07-27T14:42:15.061Z,4.93
2022-07-27T14:46:18.420Z,5.43
2022-07-27T14:50:23.358Z,5.30
2022-07-27T14:54:26.677Z,5.43
2022-07-27T14:58:30.060Z,4.13
2022-07-27T15:02:34.795Z,4.23
2022-07-27T15:06:39.584Z,4.83
2022-07-27T15:10:44.151Z,4.10
2022-07-27T15:14:47.443Z,4.90
2022-07-27T15:18:50.734Z,5.03
2022-07-27T15:22:55.507Z,5.37
2022-07-27T15:26:58.851Z,5.47
2022-07-27T15:31:02.545Z,4.93
2022-07-27T15:35:06.531Z,5.73
2022-07-27T15:39:11.491Z,6.27
2022-07-27T15:43:17.058Z,4.30
2022-07-27T15:47:20.426Z,4.27
2022-07-27T15:51:23.752Z,4.73
2022-07-27T15:55:28.552Z,5.63
2022-07-27T15:59:31.865Z,5.87
2022-07-27T16:03:35.527Z,6.33
2022-07-27T16:07:41.693Z,6.67
2022-07-27T16:11:47.142Z,6.70
2022-07-27T16:16:08.039Z,6.20
2022-07-27T16:20:13.664Z,6.83
2022-07-27T16:24:17.409Z,7.83
2022-07-27T16:28:22.806Z,7.90
2022-07-27T16:32:26.550Z,7.97
2022-07-27T16:36:32.956Z,10.83
2022-07-27T16:40:39.438Z,12.80
2022-07-27T16:44:44.520Z,10.10
2022-07-27T16:48:48.333Z,11.27
2022-07-27T16:52:51.819Z,10.50
2022-07-27T16:56:56.286Z,11.63
2022-07-27T17:01:01.956Z,9.90
2022-07-27T17:05:06.776Z,12.40
2022-07-27T17:09:11.170Z,12.80
2022-07-27T17:13:14.847Z,11.80
2022-07-27T17:17:20.694Z,11.50
2022-07-27T17:21:24.412Z,13.00
2022-07-27T17:25:31.130Z,12.70
2022-07-27T17:29:34.981Z,15.47
2022-07-27T17:33:40.619Z,15.27
2022-07-27T17:38:04.999Z,14.43
2022-07-27T17:42:09.804Z,14.03
2022-07-27T17:46:14.241Z,13.73
2022-07-27T17:50:19.296Z,14.33
2022-07-27T17:54:37.921Z,16.47
2022-07-27T17:58:43.050Z,21.63
2022-07-27T18:02:46.638Z,14.93
2022-07-27T18:06:52.340Z,12.77
2022-07-27T18:10:55.760Z,13.07
2022-07-27T18:15:18.363Z,11.97
2022-07-27T18:19:22.957Z,11.80
2022-07-27T18:23:28.530Z,11.27
2022-07-27T18:27:32.864Z,12.67
2022-07-27T18:31:37.978Z,13.77
2022-07-27T18:35:41.669Z,11.50
2022-07-27T18:39:50.574Z,12.70
2022-07-27T18:43:54.020Z,13.27
2022-07-27T18:47:57.328Z,13.13
2022-07-27T18:52:03.086Z,14.10
2022-07-27T18:56:13.062Z,14.40
2022-07-27T19:00:17.023Z,11.90
2022-07-27T19:04:26.885Z,15.10
2022-07-27T19:08:32.116Z,12.63
2022-07-27T19:12:37.443Z,11.57
2022-07-27T19:16:40.867Z,11.87
2022-07-27T19:20:46.042Z,11.90
2022-07-27T19:24:54.621Z,12.20
2022-07-27T19:28:59.745Z,15.10
2022-07-27T19:33:04.485Z,13.93
2022-07-27T19:37:08.199Z,11.97
2022-07-27T19:41:13.385Z,12.37
2022-07-27T19:45:28.541Z,15.43
2022-07-27T19:49:36.104Z,15.10
2022-07-27T19:53:44.509Z,15.43
2022-07-27T19:57:48.088Z,16.43
2022-07-27T20:01:52.985Z,16.43
2022-07-27T20:05:57.308Z,14.83
2022-07-27T20:10:03.168Z,15.30
2022-07-27T20:14:06.767Z,15.90
2022-07-27T20:18:13.920Z,18.87
2022-07-27T20:22:17.803Z,16.93
2022-07-27T20:26:24.586Z,18.00
2022-07-27T20:30:28.386Z,17.27
2022-07-27T20:34:33.092Z,15.77
2022-07-27T20:38:36.417Z,15.73
2022-07-27T20:42:42.870Z,13.10
2022-07-27T20:46:46.268Z,14.60
2022-07-27T20:50:51.369Z,17.90
2022-07-27T20:54:54.865Z,12.90
2022-07-27T20:58:58.626Z,15.53
2022-07-27T21:03:02.038Z,18.10
2022-07-27T21:07:06.770Z,21.57
2022-07-27T21:11:10.195Z,20.13
2022-07-27T21:15:13.762Z,21.73
2022-07-27T21:19:19.336Z,23.30
2022-07-27T21:23:41.355Z,22.40
2022-07-27T21:27:44.735Z,20.83
2022-07-27T21:31:50.628Z,20.97
2022-07-27T21:35:53.956Z,19.20
2022-07-27T21:39:59.747Z,19.57
2022-07-27T21:44:03.112Z,21.70
2022-07-27T21:48:07.196Z,19.00
2022-07-27T21:52:11.366Z,20.00
2022-07-27T21:56:16.726Z,19.30
2022-07-27T22:00:24.010Z,19.60
2022-07-27T22:04:28.164Z,18.80
2022-07-27T22:08:31.629Z,19.60
2022-07-27T22:12:36.494Z,17.83
2022-07-27T22:16:39.919Z,18.90
2022-07-27T22:20:43.335Z,18.77
2022-07-27T22:24:46.659Z,21.13
2022-07-27T22:28:51.412Z,19.17
2022-07-27T22:32:54.973Z,28.20
2022-07-27T22:36:58.302Z,32.63
2022-07-27T22:41:01.794Z,26.70
2022-07-27T22:45:08.008Z,20.53
2022-07-27T22:49:11.518Z,23.00
2022-07-27T22:53:16.386Z,31.80
2022-07-27T22:57:19.713Z,43.63
2022-07-27T23:01:45.624Z,21.50
2022-07-27T23:05:47.960Z,22.30
2022-07-27T23:09:51.372Z,17.27
2022-07-27T23:13:54.709Z,17.07
2022-07-27T23:17:59.530Z,18.03
2022-07-27T23:22:02.907Z,17.17
2022-07-27T23:26:06.219Z,17.47
2022-07-27T23:30:10.982Z,16.33
2022-07-27T23:34:15.826Z,16.60
2022-07-27T23:38:19.395Z,14.70
2022-07-27T23:42:22.733Z,15.87
2022-07-27T23:46:26.146Z,15.33
2022-07-27T23:50:30.955Z,15.03
2022-07-27T23:54:34.222Z,15.70
2022-07-27T23:58:37.567Z,17.27
